Time;durP1;ratioP1;P1;durP2;ratioP2;P2;SDS_P1;SDS_P2;PMS_P1;PMS_P2;Temp;Humidity;BMP_temperature;BMP_pressure;BME280_temperature;BME280_humidity;BME280_pressure;Samples;Min_cycle;Max_cycle;Signal;HPM_P1;HPM_P2
2023/08/17 00:01:19;;;;;;;6.43;5.87;;;;;;;;;;5052023;28;20214;-72
2023/08/17 00:04:23;;;;;;;9.83;6.00;;;;;;;;;;5075154;28;20199;-71
2023/08/17 00:07:27;;;;;;;8.57;5.70;;;;;;;;;;5051356;28;20536;-72
2023/08/17 00:10:32;;;;;;;6.60;5.97;;;;;;;;;;5075069;28;20229;-73
2023/08/17 00:13:36;;;;;;;8.17;6.47;;;;;;;;;;5075337;28;20180;-73
2023/08/17 00:16:41;;;;;;;8.77;6.70;;;;;;;;;;5075183;28;20179;-73
2023/08/17 00:19:45;;;;;;;6.97;6.20;;;;;;;;;;5075176;28;20176;-72
2023/08/17 00:22:49;;;;;;;6.90;6.20;;;;;;;;;;5074704;28;20227;-73
2023/08/17 00:25:53;;;;;;;7.60;6.37;;;;;;;;;;5074858;28;20179;-73
2023/08/17 00:28:58;;;;;;;7.23;6.00;;;;;;;;;;5062484;28;20176;-73
2023/08/17 00:32:03;;;;;;;6.57;5.97;;;;;;;;;;5062602;28;20211;-72
2023/08/17 00:35:07;;;;;;;10.13;6.80;;;;;;;;;;5074888;28;20176;-72
2023/08/17 00:38:12;;;;;;;8.47;6.77;;;;;;;;;;5062252;28;20175;-72
2023/08/17 00:41:16;;;;;;;8.03;6.47;;;;;;;;;;5062244;28;20211;-72
2023/08/17 00:44:20;;;;;;;10.50;6.83;;;;;;;;;;5050583;28;20654;-72
2023/08/17 00:47:26;;;;;;;9.07;7.30;;;;;;;;;;5061996;28;20203;-72
2023/08/17 00:50:31;;;;;;;7.70;6.90;;;;;;;;;;5074478;28;20670;-73
2023/08/17 00:53:35;;;;;;;8.73;7.30;;;;;;;;;;5050730;28;20176;-72
2023/08/17 00:56:40;;;;;;;8.27;7.37;;;;;;;;;;5074431;28;20187;-72
2023/08/17 00:59:44;;;;;;;8.80;6.33;;;;;;;;;;5061948;28;20642;-72
2023/08/17 01:02:48;;;;;;;12.57;7.10;;;;;;;;;;5073977;28;20214;-71
2023/08/17 01:05:54;;;;;;;8.00;6.27;;;;;;;;;;5050412;28;20184;-72
2023/08/17 01:09:00;;;;;;;7.43;6.67;;;;;;;;;;5061803;28;20188;-72
2023/08/17 01:12:27;;;;;;;7.43;6.73;;;;;;;;;;5061782;28;20208;-72
2023/08/17 01:15:42;;;;;;;8.00;7.20;;;;;;;;;;5062019;28;20175;-72
2023/08/17 01:18:47;;;;;;;10.23;6.57;;;;;;;;;;5061709;28;20180;-72
2023/08/17 01:21:56;;;;;;;7.17;6.47;;;;;;;;;;5050174;28;20211;-72
2023/08/17 01:25:00;;;;;;;7.83;6.50;;;;;;;;;;5061302;28;20171;-72
2023/08/17 01:28:05;;;;;;;8.47;6.43;;;;;;;;;;5073592;28;20183;-72
2023/08/17 01:31:21;;;;;;;7.70;6.90;;;;;;;;;;5073360;28;20231;-72
2023/08/17 01:34:27;;;;;;;6.83;6.17;;;;;;;;;;5049993;28;20184;-72
2023/08/17 01:37:37;;;;;;;7.40;6.67;;;;;;;;;;5049629;28;20171;-71
2023/08/17 01:40:43;;;;;;;8.40;6.73;;;;;;;;;;5061038;28;20179;-72
2023/08/17 01:43:50;;;;;;;7.40;6.23;;;;;;;;;;5049685;28;20179;-71
2023/08/17 01:46:54;;;;;;;6.80;5.93;;;;;;;;;;5060976;28;20199;-71
2023/08/17 01:50:00;;;;;;;7.57;6.87;;;;;;;;;;5061062;28;20211;-71
2023/08/17 01:53:05;;;;;;;7.63;6.93;;;;;;;;;;5049517;28;20199;-72
2023/08/17 01:56:10;;;;;;;10.93;7.80;;;;;;;;;;5061166;28;20543;-72
2023/08/17 01:59:14;;;;;;;7.50;6.63;;;;;;;;;;5049515;28;20179;-72
2023/08/17 02:02:18;;;;;;;10.33;7.70;;;;;;;;;;5060822;28;20206;-72
2023/08/17 02:05:22;;;;;;;8.60;7.40;;;;;;;;;;5049617;28;20647;-72
2023/08/17 02:08:27;;;;;;;9.20;8.30;;;;;;;;;;5061071;28;20184;-72
2023/08/17 02:11:31;;;;;;;8.80;7.70;;;;;;;;;;5049354;28;20721;-71
2023/08/17 02:14:35;;;;;;;10.57;7.60;;;;;;;;;;5060907;28;20195;-72
2023/08/17 02:17:40;;;;;;;8.33;7.47;;;;;;;;;;5060842;28;20195;-72
2023/08/17 02:20:45;;;;;;;8.77;7.93;;;;;;;;;;5060682;28;20511;-72
2023/08/17 02:23:49;;;;;;;9.00;8.10;;;;;;;;;;5049414;28;20180;-72
2023/08/17 02:26:53;;;;;;;10.13;8.43;;;;;;;;;;5072873;28;20180;-72
2023/08/17 02:29:57;;;;;;;9.23;8.33;;;;;;;;;;5060542;28;20631;-72
2023/08/17 02:33:02;;;;;;;9.47;8.53;;;;;;;;;;5060460;28;20211;-72
2023/08/17 02:36:06;;;;;;;11.47;8.23;;;;;;;;;;5072804;28;20183;-72
2023/08/17 02:39:10;;;;;;;9.07;8.13;;;;;;;;;;5060743;28;20622;-72
2023/08/17 02:42:14;;;;;;;8.57;7.77;;;;;;;;;;5072632;28;20699;-72
2023/08/17 02:45:18;;;;;;;8.83;7.93;;;;;;;;;;5060582;28;20180;-73
2023/08/17 02:48:23;;;;;;;8.33;7.53;;;;;;;;;;5060956;28;20180;-72
2023/08/17 02:51:27;;;;;;;9.93;8.00;;;;;;;;;;5062575;28;20227;-71
2023/08/17 02:54:31;;;;;;;12.60;8.73;;;;;;;;;;5064839;28;20175;-72
2023/08/17 02:57:35;;;;;;;10.33;8.97;;;;;;;;;;5064292;28;20176;-71
2023/08/17 03:00:39;;;;;;;10.43;8.10;;;;;;;;;;5064241;28;20175;-72
2023/08/17 03:03:43;;;;;;;10.80;8.67;;;;;;;;;;5076607;28;20184;-72
2023/08/17 03:06:49;;;;;;;9.97;8.30;;;;;;;;;;5052819;28;20175;-72
2023/08/17 03:09:53;;;;;;;9.90;8.90;;;;;;;;;;5064119;28;20175;-72
2023/08/17 03:12:57;;;;;;;9.20;8.17;;;;;;;;;;5052307;28;20211;-71
2023/08/17 03:16:01;;;;;;;9.37;7.97;;;;;;;;;;5063855;28;20180;-72
2023/08/17 03:19:07;;;;;;;8.87;7.97;;;;;;;;;;5064083;28;20180;-72
2023/08/17 03:22:11;;;;;;;8.47;7.67;;;;;;;;;;5052339;28;20219;-71
2023/08/17 03:25:15;;;;;;;12.80;8.17;;;;;;;;;;5063693;28;20180;-72
2023/08/17 03:28:20;;;;;;;11.20;7.77;;;;;;;;;;5063568;28;20183;-72
2023/08/17 03:31:25;;;;;;;9.33;8.10;;;;;;;;;;5063606;28;20227;-72
2023/08/17 03:34:29;;;;;;;8.30;7.50;;;;;;;;;;5063487;28;20175;-71
2023/08/17 03:37:33;;;;;;;9.50;7.87;;;;;;;;;;5075811;28;20175;-72
2023/08/17 03:40:37;;;;;;;8.70;7.53;;;;;;;;;;5063636;28;20175;-72
2023/08/17 03:43:41;;;;;;;8.10;7.30;;;;;;;;;;5063362;28;20184;-71
2023/08/17 03:46:46;;;;;;;9.10;8.17;;;;;;;;;;5051533;28;20207;-72
2023/08/17 03:49:52;;;;;;;10.60;8.63;;;;;;;;;;5063478;28;20504;-72
2023/08/17 03:52:55;;;;;;;9.77;8.07;;;;;;;;;;5063074;28;20215;-72
2023/08/17 03:55:59;;;;;;;10.23;8.53;;;;;;;;;;5051532;28;20199;-72
2023/08/17 03:59:03;;;;;;;9.97;8.53;;;;;;;;;;5075317;28;20191;-72
2023/08/17 04:02:07;;;;;;;9.50;8.43;;;;;;;;;;5051050;28;20210;-71
2023/08/17 04:05:12;;;;;;;9.93;8.93;;;;;;;;;;5051641;28;20184;-72
2023/08/17 04:08:16;;;;;;;9.70;8.50;;;;;;;;;;5075377;28;20615;-72
2023/08/17 04:11:20;;;;;;;11.03;8.73;;;;;;;;;;5075304;28;20219;-71
2023/08/17 04:14:26;;;;;;;10.13;8.60;;;;;;;;;;5051206;28;20184;-72
2023/08/17 04:17:31;;;;;;;9.53;7.97;;;;;;;;;;5062551;28;20203;-72
2023/08/17 04:20:36;;;;;;;12.60;8.10;;;;;;;;;;5062519;28;20191;-72
2023/08/17 04:23:40;;;;;;;10.03;7.93;;;;;;;;;;5075113;28;20195;-72
2023/08/17 04:26:45;;;;;;;10.07;9.17;;;;;;;;;;5074732;28;20512;-72
2023/08/17 04:29:48;;;;;;;11.20;8.50;;;;;;;;;;5051200;28;20203;-72
2023/08/17 04:32:52;;;;;;;11.33;8.90;;;;;;;;;;5050668;28;20211;-72
2023/08/17 04:35:58;;;;;;;10.87;9.63;;;;;;;;;;5062659;28;20180;-72
2023/08/17 04:39:04;;;;;;;10.70;9.60;;;;;;;;;;5050720;28;20180;-72
2023/08/17 04:42:08;;;;;;;10.73;9.63;;;;;;;;;;5062320;28;20677;-72
2023/08/17 04:45:13;;;;;;;9.50;8.60;;;;;;;;;;5062314;28;20175;-72
2023/08/17 04:48:20;;;;;;;9.23;8.27;;;;;;;;;;5062059;28;20183;-72
2023/08/17 04:51:25;;;;;;;9.73;8.57;;;;;;;;;;5061935;28;20231;-71
2023/08/17 04:54:29;;;;;;;9.67;8.67;;;;;;;;;;5062195;28;20630;-72
2023/08/17 04:57:34;;;;;;;12.70;8.47;;;;;;;;;;5062009;28;20180;-72
2023/08/17 05:00:39;;;;;;;10.77;8.00;;;;;;;;;;5062078;28;20176;-71
2023/08/17 05:03:42;;;;;;;9.10;8.20;;;;;;;;;;5074291;28;20179;-71
2023/08/17 05:06:46;;;;;;;16.57;8.50;;;;;;;;;;5061760;28;20175;-71
2023/08/17 05:09:51;;;;;;;8.30;7.50;;;;;;;;;;5061956;28;20519;-71
2023/08/17 05:12:55;;;;;;;9.10;6.70;;;;;;;;;;5060665;28;20693;-71
2023/08/17 05:16:01;;;;;;;8.17;7.40;;;;;;;;;;5061563;28;20233;-71
2023/08/17 05:19:07;;;;;;;17.17;7.40;;;;;;;;;;5061748;28;20180;-71
2023/08/17 05:22:12;;;;;;;8.03;6.63;;;;;;;;;;5061286;28;20207;-70
2023/08/17 05:25:16;;;;;;;8.70;7.23;;;;;;;;;;5061579;28;20176;-71
2023/08/17 05:28:20;;;;;;;8.90;7.23;;;;;;;;;;5061349;28;20179;-71
2023/08/17 05:31:24;;;;;;;8.13;7.33;;;;;;;;;;5049603;28;20223;-70
2023/08/17 05:34:30;;;;;;;10.13;7.20;;;;;;;;;;5049956;28;20175;-70
2023/08/17 05:37:35;;;;;;;10.27;7.73;;;;;;;;;;5061100;28;20180;-70
2023/08/17 05:40:39;;;;;;;10.37;7.10;;;;;;;;;;5061089;28;20191;-70
2023/08/17 05:43:44;;;;;;;9.23;7.17;;;;;;;;;;5049532;28;20191;-71
2023/08/17 05:46:48;;;;;;;9.27;7.50;;;;;;;;;;5060892;28;20547;-71
2023/08/17 05:49:52;;;;;;;11.90;7.67;;;;;;;;;;5073160;28;20187;-71
2023/08/17 05:52:56;;;;;;;7.70;6.90;;;;;;;;;;5073011;28;20223;-70
2023/08/17 05:56:00;;;;;;;9.97;7.40;;;;;;;;;;5073195;28;20175;-71
2023/08/17 05:59:04;;;;;;;8.17;6.77;;;;;;;;;;5060776;28;20179;-70
2023/08/17 06:02:08;;;;;;;9.23;7.23;;;;;;;;;;5049217;28;20207;-70
2023/08/17 06:05:12;;;;;;;13.93;7.80;;;;;;;;;;5073125;28;20179;-71
2023/08/17 06:08:18;;;;;;;9.13;7.80;;;;;;;;;;5073208;28;20183;-71
2023/08/17 06:11:23;;;;;;;9.90;8.90;;;;;;;;;;5073104;28;20227;-71
2023/08/17 06:14:27;;;;;;;9.43;8.13;;;;;;;;;;5060554;28;20662;-72
2023/08/17 06:17:31;;;;;;;10.47;9.37;;;;;;;;;;5060654;28;20191;-72
2023/08/17 06:20:36;;;;;;;14.30;12.43;;;;;;;;;;5060805;28;20179;-72
2023/08/17 06:23:40;;;;;;;15.70;11.63;;;;;;;;;;5073508;28;20182;-72
2023/08/17 06:26:45;;;;;;;12.67;11.47;;;;;;;;;;5053497;28;20641;-72
2023/08/17 06:29:49;;;;;;;14.00;11.90;;;;;;;;;;5077312;28;20182;-72
2023/08/17 06:32:53;;;;;;;12.40;10.60;;;;;;;;;;5064419;28;20234;-72
2023/08/17 06:35:57;;;;;;;12.23;10.87;;;;;;;;;;5076880;28;20186;-72
2023/08/17 06:39:02;;;;;;;11.20;10.20;;;;;;;;;;5064782;28;20192;-72
2023/08/17 06:42:06;;;;;;;12.40;11.07;;;;;;;;;;5076688;28;20214;-72
2023/08/17 06:45:10;;;;;;;12.23;10.73;;;;;;;;;;5064712;28;20182;-72
2023/08/17 06:48:14;;;;;;;12.63;9.93;;;;;;;;;;5076664;28;20175;-72
2023/08/17 06:51:18;;;;;;;13.23;10.40;;;;;;;;;;5064189;28;20223;-72
2023/08/17 06:54:22;;;;;;;12.83;11.53;;;;;;;;;;5076450;28;20195;-72
2023/08/17 06:57:27;;;;;;;12.63;11.37;;;;;;;;;;5076399;28;20186;-72
2023/08/17 07:00:31;;;;;;;13.13;11.27;;;;;;;;;;5064175;28;20187;-72
2023/08/17 07:03:35;;;;;;;12.13;10.93;;;;;;;;;;5076614;28;20187;-72
2023/08/17 07:06:40;;;;;;;14.33;11.93;;;;;;;;;;5076344;28;20658;-72
2023/08/17 07:09:45;;;;;;;12.60;11.40;;;;;;;;;;5076501;28;20191;-72
2023/08/17 07:12:49;;;;;;;13.87;12.40;;;;;;;;;;5063771;28;20246;-72
2023/08/17 07:15:53;;;;;;;15.60;11.43;;;;;;;;;;5076470;28;20207;-72
2023/08/17 07:18:57;;;;;;;14.87;11.93;;;;;;;;;;5076304;28;20203;-72
2023/08/17 07:22:01;;;;;;;12.77;11.67;;;;;;;;;;5063762;28;20216;-72
2023/08/17 07:25:05;;;;;;;12.70;11.00;;;;;;;;;;5076192;28;20187;-72
2023/08/17 07:28:12;;;;;;;12.77;11.57;;;;;;;;;;5063742;28;20181;-71
2023/08/17 07:31:16;;;;;;;10.80;9.70;;;;;;;;;;5075680;28;20220;-72
2023/08/17 07:34:20;;;;;;;13.07;11.33;;;;;;;;;;5075780;28;20178;-72
2023/08/17 07:37:32;;;;;;;13.43;10.63;;;;;;;;;;5074910;28;20201;-72
2023/08/17 07:40:36;;;;;;;11.17;9.73;;;;;;;;;;5075680;28;20189;-72
2023/08/17 07:43:40;;;;;;;11.47;9.40;;;;;;;;;;5075691;28;20174;-72
2023/08/17 07:46:44;;;;;;;9.47;8.47;;;;;;;;;;5063077;28;20539;-72
2023/08/17 07:49:48;;;;;;;9.10;8.20;;;;;;;;;;5075786;28;20181;-72
2023/08/17 07:52:52;;;;;;;10.07;8.83;;;;;;;;;;5075361;28;20337;-72
2023/08/17 07:55:56;;;;;;;9.50;7.97;;;;;;;;;;5075706;28;20185;-72
2023/08/17 07:59:00;;;;;;;9.57;8.60;;;;;;;;;;5075340;28;20640;-72
2023/08/17 08:02:05;;;;;;;8.75;7.72;;;;;;;;;;5062900;28;20207;-72
2023/08/17 08:05:09;;;;;;;9.93;7.85;;;;;;;;;;5075470;28;20189;-72
2023/08/17 08:08:14;;;;;;;11.43;7.95;;;;;;;;;;5062770;28;20189;-72
2023/08/17 08:11:21;;;;;;;8.30;7.50;;;;;;;;;;5062936;28;20215;-72
2023/08/17 08:14:26;;;;;;;7.75;6.95;;;;;;;;;;5075002;28;20179;-72
2023/08/17 08:17:31;;;;;;;8.15;6.90;;;;;;;;;;5074994;28;20177;-72
2023/08/17 08:20:35;;;;;;;7.97;7.22;;;;;;;;;;5075169;28;20187;-72
2023/08/17 08:23:39;;;;;;;6.68;6.05;;;;;;;;;;5074919;28;20539;-72
2023/08/17 08:26:44;;;;;;;7.07;6.47;;;;;;;;;;5075392;28;20182;-72
2023/08/17 08:29:48;;;;;;;7.55;6.82;;;;;;;;;;5062740;28;20183;-72
2023/08/17 08:32:51;;;;;;;9.27;5.97;;;;;;;;;;5074539;28;20221;-72
2023/08/17 08:35:56;;;;;;;7.18;5.75;;;;;;;;;;5050983;28;20627;-71
2023/08/17 08:39:00;;;;;;;7.47;6.40;;;;;;;;;;5074856;28;20175;-72
2023/08/17 08:42:04;;;;;;;24.33;8.25;;;;;;;;;;5062210;28;20212;-72
2023/08/17 08:45:09;;;;;;;10.20;6.43;;;;;;;;;;5074746;28;20176;-72
2023/08/17 08:48:13;;;;;;;6.63;5.47;;;;;;;;;;5074554;28;20172;-72
2023/08/17 08:51:25;;;;;;;8.45;5.68;;;;;;;;;;5074417;28;20686;-72
2023/08/17 08:54:30;;;;;;;7.18;5.65;;;;;;;;;;5061831;28;20188;-72
2023/08/17 08:57:35;;;;;;;5.90;5.13;;;;;;;;;;5074412;28;20528;-72
2023/08/17 09:00:40;;;;;;;9.25;5.55;;;;;;;;;;5074411;28;20176;-72
2023/08/17 09:03:47;;;;;;;10.52;5.18;;;;;;;;;;5074346;28;20176;-72
2023/08/17 09:06:51;;;;;;;7.60;5.43;;;;;;;;;;5074305;28;20519;-72
2023/08/17 09:09:56;;;;;;;7.38;5.80;;;;;;;;;;5050749;28;20518;-72
2023/08/17 09:13:00;;;;;;;7.50;5.68;;;;;;;;;;5073707;28;20232;-72
2023/08/17 09:16:05;;;;;;;6.00;5.40;;;;;;;;;;5061533;28;20180;-72
2023/08/17 09:19:10;;;;;;;7.00;5.30;;;;;;;;;;5073748;28;20188;-72
2023/08/17 09:22:22;;;;;;;7.45;5.70;;;;;;;;;;5073703;28;20565;-72
2023/08/17 09:25:27;;;;;;;6.82;6.13;;;;;;;;;;5073826;28;20184;-72
2023/08/17 09:28:31;;;;;;;7.18;5.43;;;;;;;;;;5073632;28;20530;-72
2023/08/17 09:31:34;;;;;;;7.78;5.80;;;;;;;;;;5073864;28;20564;-72
2023/08/17 09:34:41;;;;;;;6.03;5.53;;;;;;;;;;5073813;28;20172;-72
2023/08/17 09:37:45;;;;;;;6.22;5.72;;;;;;;;;;5073446;28;20167;-72
2023/08/17 09:40:49;;;;;;;5.70;5.13;;;;;;;;;;5073315;28;20195;-72
2023/08/17 09:43:55;;;;;;;6.43;5.22;;;;;;;;;;5060971;28;20196;-72
2023/08/17 09:46:59;;;;;;;6.75;5.97;;;;;;;;;;5073383;28;20207;-71
2023/08/17 09:50:05;;;;;;;5.88;5.38;;;;;;;;;;5060990;28;20180;-72
2023/08/17 09:53:17;;;;;;;6.07;5.35;;;;;;;;;;5061384;28;20212;-72
2023/08/17 09:56:23;;;;;;;6.65;5.00;;;;;;;;;;5060952;28;20184;-72
2023/08/17 09:59:27;;;;;;;6.60;5.70;;;;;;;;;;5072721;28;20172;-72
2023/08/17 10:02:32;;;;;;;5.50;5.00;;;;;;;;;;5073363;28;20208;-72
2023/08/17 10:05:39;;;;;;;5.13;4.63;;;;;;;;;;5073322;28;20180;-72
2023/08/17 10:08:49;;;;;;;5.70;5.20;;;;;;;;;;5073073;28;20635;-72
2023/08/17 10:11:57;;;;;;;5.97;5.10;;;;;;;;;;5072970;28;20207;-71
2023/08/17 10:15:11;;;;;;;7.90;4.50;;;;;;;;;;5073378;28;20172;-72
2023/08/17 10:18:39;;;;;;;5.63;4.88;;;;;;;;;;5073067;28;20209;-72
2023/08/17 10:22:15;;;;;;;5.18;4.75;;;;;;;;;;5072962;28;20556;-72
2023/08/17 10:25:21;;;;;;;6.40;5.20;;;;;;;;;;5073392;28;20172;-72
2023/08/17 10:28:30;;;;;;;5.05;4.65;;;;;;;;;;5072908;28;20184;-72
2023/08/17 10:31:35;;;;;;;5.00;4.60;;;;;;;;;;5072792;28;20215;-72
2023/08/17 10:34:41;;;;;;;5.05;4.30;;;;;;;;;;5073089;28;20164;-72
2023/08/17 10:37:45;;;;;;;5.30;4.90;;;;;;;;;;5060558;28;20180;-72
2023/08/17 10:41:21;;;;;;;5.10;4.60;;;;;;;;;;5072665;28;20528;-72
2023/08/17 10:44:48;;;;;;;4.95;4.55;;;;;;;;;;5072583;28;20180;-72
2023/08/17 10:48:00;;;;;;;5.38;4.63;;;;;;;;;;5073150;28;20180;-72
2023/08/17 10:51:05;;;;;;;4.53;4.22;;;;;;;;;;5072765;28;20212;-72
2023/08/17 10:54:09;;;;;;;6.53;4.78;;;;;;;;;;5072763;28;20212;-72
2023/08/17 10:57:38;;;;;;;5.90;4.35;;;;;;;;;;5072648;28;20651;-72
2023/08/17 11:00:48;;;;;;;7.30;4.65;;;;;;;;;;5059844;28;20517;-72
2023/08/17 11:04:11;;;;;;;7.18;4.65;;;;;;;;;;5072345;28;20172;-72
2023/08/17 11:07:15;;;;;;;5.18;4.50;;;;;;;;;;5060407;28;20185;-72
2023/08/17 11:10:20;;;;;;;5.22;4.38;;;;;;;;;;5072408;28;20663;-72
2023/08/17 11:13:27;;;;;;;5.20;4.70;;;;;;;;;;5075867;28;20564;-73
2023/08/17 11:16:31;;;;;;;4.72;4.40;;;;;;;;;;5064047;28;20623;-72
2023/08/17 11:19:40;;;;;;;4.50;4.10;;;;;;;;;;5076402;28;20623;-72
2023/08/17 11:22:46;;;;;;;7.53;4.82;;;;;;;;;;5076159;28;20714;-72
2023/08/17 11:25:55;;;;;;;7.68;4.60;;;;;;;;;;5064226;28;20188;-74
2023/08/17 11:29:00;;;;;;;6.70;4.70;;;;;;;;;;5075872;28;20516;-73
2023/08/17 11:32:04;;;;;;;5.40;4.90;;;;;;;;;;5075777;28;20220;-73
2023/08/17 11:35:09;;;;;;;4.85;4.45;;;;;;;;;;5075955;28;20168;-73
2023/08/17 11:38:13;;;;;;;5.65;4.32;;;;;;;;;;5040579;28;20172;-73
2023/08/17 11:41:17;;;;;;;6.05;4.70;;;;;;;;;;5063217;28;20207;-73
2023/08/17 11:44:21;;;;;;;5.07;4.05;;;;;;;;;;5075660;28;20524;-73
2023/08/17 11:47:25;;;;;;;4.68;4.28;;;;;;;;;;5063261;28;20191;-73
2023/08/17 11:50:30;;;;;;;4.97;4.32;;;;;;;;;;5075560;28;20176;-72
2023/08/17 11:53:35;;;;;;;4.65;4.03;;;;;;;;;;5075407;28;20203;-73
2023/08/17 11:56:39;;;;;;;16.02;5.05;;;;;;;;;;5075364;28;20196;-73
2023/08/17 11:59:43;;;;;;;6.38;4.60;;;;;;;;;;5062998;28;20195;-73
2023/08/17 12:02:51;;;;;;;5.32;4.47;;;;;;;;;;5062937;28;20215;-73
2023/08/17 12:05:55;;;;;;;4.30;3.90;;;;;;;;;;5075212;28;20514;-72
2023/08/17 12:08:59;;;;;;;6.70;4.38;;;;;;;;;;5075243;28;20184;-72
2023/08/17 12:12:04;;;;;;;4.25;3.75;;;;;;;;;;5062935;28;20207;-73
2023/08/17 12:15:11;;;;;;;4.28;3.88;;;;;;;;;;5075600;28;20183;-72
2023/08/17 12:18:15;;;;;;;4.95;4.00;;;;;;;;;;5063038;28;20180;-73
2023/08/17 12:21:21;;;;;;;4.30;3.90;;;;;;;;;;5075454;28;20215;-73
2023/08/17 12:24:25;;;;;;;6.65;4.35;;;;;;;;;;5074824;28;20199;-72
2023/08/17 12:27:29;;;;;;;4.75;4.22;;;;;;;;;;5075067;28;20642;-73
2023/08/17 12:30:37;;;;;;;4.53;4.13;;;;;;;;;;5063416;28;20180;-73
2023/08/17 12:33:41;;;;;;;6.18;4.63;;;;;;;;;;5074893;28;20675;-73
2023/08/17 12:36:45;;;;;;;4.82;4.25;;;;;;;;;;5074936;28;20666;-72
2023/08/17 12:39:49;;;;;;;4.20;3.85;;;;;;;;;;5062539;28;20180;-72
2023/08/17 12:42:53;;;;;;;6.07;4.65;;;;;;;;;;5074469;28;20212;-72
2023/08/17 12:46:00;;;;;;;5.25;4.75;;;;;;;;;;5074374;28;20204;-72
2023/08/17 12:49:04;;;;;;;8.07;4.85;;;;;;;;;;5074511;28;20180;-73
2023/08/17 12:52:11;;;;;;;7.45;4.68;;;;;;;;;;5074142;28;20709;-72
2023/08/17 12:55:15;;;;;;;5.07;4.60;;;;;;;;;;5074263;28;20176;-73
2023/08/17 12:58:19;;;;;;;4.80;4.40;;;;;;;;;;5061738;28;20176;-72
2023/08/17 13:01:26;;;;;;;4.80;4.40;;;;;;;;;;5074171;28;20220;-73
2023/08/17 13:04:30;;;;;;;5.18;4.68;;;;;;;;;;5074022;28;20172;-73
2023/08/17 13:07:34;;;;;;;5.45;4.90;;;;;;;;;;5073900;28;20184;-72
2023/08/17 13:10:38;;;;;;;5.85;4.18;;;;;;;;;;5074149;28;20179;-73
2023/08/17 13:13:42;;;;;;;7.28;4.88;;;;;;;;;;5073682;28;20220;-72
2023/08/17 13:16:46;;;;;;;4.68;4.28;;;;;;;;;;5073884;28;20203;-73
2023/08/17 13:19:50;;;;;;;5.53;5.03;;;;;;;;;;5061422;28;20204;-73
2023/08/17 13:22:54;;;;;;;5.18;4.53;;;;;;;;;;5061263;28;20215;-72
2023/08/17 13:26:01;;;;;;;5.95;4.72;;;;;;;;;;5073810;28;20619;-73
2023/08/17 13:29:05;;;;;;;6.20;4.70;;;;;;;;;;5073588;28;20195;-73
2023/08/17 13:32:09;;;;;;;6.05;4.28;;;;;;;;;;5061354;28;20219;-73
2023/08/17 13:35:15;;;;;;;4.95;4.50;;;;;;;;;;5072568;28;20682;-73
2023/08/17 13:38:19;;;;;;;4.65;4.25;;;;;;;;;;5049589;28;20199;-72
2023/08/17 13:41:24;;;;;;;8.95;5.63;;;;;;;;;;5061213;28;20686;-73
2023/08/17 13:44:29;;;;;;;7.80;4.30;;;;;;;;;;5073524;28;20175;-73
2023/08/17 13:47:33;;;;;;;5.00;4.13;;;;;;;;;;5073286;28;20203;-73
2023/08/17 13:50:38;;;;;;;4.88;4.38;;;;;;;;;;5073257;28;20537;-73
2023/08/17 13:57:05;;;;;;;4.28;3.90;;;;;;;;;;5061130;28;20180;-73
2023/08/17 14:00:10;;;;;;;4.82;4.22;;;;;;;;;;5073511;28;20180;-72
2023/08/17 14:03:17;;;;;;;4.90;4.28;;;;;;;;;;5073186;28;20172;-73
2023/08/17 14:06:23;;;;;;;4.55;4.15;;;;;;;;;;5061029;28;20631;-73
2023/08/17 14:09:27;;;;;;;6.35;5.05;;;;;;;;;;5073730;28;20184;-72
2023/08/17 14:12:31;;;;;;;8.70;4.60;;;;;;;;;;5073208;28;20210;-73
2023/08/17 14:15:35;;;;;;;5.18;4.78;;;;;;;;;;5072980;28;20204;-72
2023/08/17 14:18:39;;;;;;;5.30;4.80;;;;;;;;;;5060646;28;20547;-72
2023/08/17 14:21:43;;;;;;;8.10;4.90;;;;;;;;;;5060688;28;20558;-72
2023/08/17 14:24:47;;;;;;;5.40;4.75;;;;;;;;;;5073251;28;20509;-72
2023/08/17 14:27:51;;;;;;;6.40;5.05;;;;;;;;;;5073347;28;20533;-72
2023/08/17 14:30:55;;;;;;;5.43;4.93;;;;;;;;;;5060784;28;20622;-73
2023/08/17 14:33:59;;;;;;;5.50;4.65;;;;;;;;;;5060786;28;20663;-72
2023/08/17 14:37:03;;;;;;;5.95;4.50;;;;;;;;;;5060518;28;20180;-73
2023/08/17 14:40:08;;;;;;;4.97;4.57;;;;;;;;;;5073058;28;20184;-72
2023/08/17 14:43:19;;;;;;;10.38;4.68;;;;;;;;;;5060542;28;20188;-72
2023/08/17 14:46:23;;;;;;;5.35;4.43;;;;;;;;;;5062461;28;20199;-73
2023/08/17 14:49:27;;;;;;;4.95;4.47;;;;;;;;;;5076673;28;20204;-72
2023/08/17 14:52:31;;;;;;;5.50;3.95;;;;;;;;;;5064302;28;20207;-72
2023/08/17 14:55:35;;;;;;;4.90;4.50;;;;;;;;;;5076825;28;20536;-72
2023/08/17 14:58:39;;;;;;;4.63;4.00;;;;;;;;;;5064930;28;20511;-72
2023/08/17 15:01:44;;;;;;;4.65;4.35;;;;;;;;;;5076352;28;20566;-72
2023/08/17 15:04:53;;;;;;;6.30;4.93;;;;;;;;;;5076388;28;20176;-72
2023/08/17 15:07:57;;;;;;;7.20;4.72;;;;;;;;;;5052537;28;20188;-73
2023/08/17 15:11:02;;;;;;;4.72;4.25;;;;;;;;;;5076162;28;20215;-73
2023/08/17 15:14:07;;;;;;;4.85;4.20;;;;;;;;;;5076107;28;20211;-73
2023/08/17 15:17:12;;;;;;;5.55;4.32;;;;;;;;;;5076428;28;20176;-73
2023/08/17 15:20:16;;;;;;;5.55;4.25;;;;;;;;;;5076067;28;20184;-73
2023/08/17 15:23:20;;;;;;;7.85;4.50;;;;;;;;;;5075988;28;20179;-73
2023/08/17 15:26:24;;;;;;;6.13;4.32;;;;;;;;;;5076250;28;20172;-72
2023/08/17 15:29:28;;;;;;;5.57;4.90;;;;;;;;;;5063628;28;20179;-72
2023/08/17 15:32:32;;;;;;;5.97;4.80;;;;;;;;;;5063603;28;20212;-73
2023/08/17 15:35:36;;;;;;;6.78;4.75;;;;;;;;;;5063459;28;20200;-72
2023/08/17 15:38:43;;;;;;;5.75;4.57;;;;;;;;;;5076039;28;20515;-72
2023/08/17 15:41:47;;;;;;;7.45;4.85;;;;;;;;;;5075514;28;20219;-73
2023/08/17 15:44:51;;;;;;;5.25;4.75;;;;;;;;;;5075887;28;20179;-73
2023/08/17 15:47:55;;;;;;;6.82;5.03;;;;;;;;;;5075684;28;20172;-73
2023/08/17 15:51:02;;;;;;;6.38;4.63;;;;;;;;;;5075486;28;20711;-73
2023/08/17 15:54:07;;;;;;;5.43;4.93;;;;;;;;;;5075358;28;20219;-72
2023/08/17 15:57:10;;;;;;;7.85;5.25;;;;;;;;;;5062217;28;20184;-72
2023/08/17 16:00:15;;;;;;;5.45;4.88;;;;;;;;;;5075305;28;20545;-73
2023/08/17 16:03:21;;;;;;;7.25;5.43;;;;;;;;;;5075446;28;20183;-73
2023/08/17 16:06:25;;;;;;;5.60;5.10;;;;;;;;;;5051447;28;20175;-72
2023/08/17 16:09:29;;;;;;;5.72;4.70;;;;;;;;;;5075830;28;20175;-72
2023/08/17 16:12:33;;;;;;;7.00;4.97;;;;;;;;;;5062693;28;20220;-73
2023/08/17 16:15:37;;;;;;;6.22;4.70;;;;;;;;;;5074888;28;20211;-72
2023/08/17 16:18:41;;;;;;;5.75;5.25;;;;;;;;;;5062852;28;20180;-72
2023/08/17 16:21:46;;;;;;;9.10;5.13;;;;;;;;;;5075141;28;20208;-73
2023/08/17 16:24:50;;;;;;;6.57;5.28;;;;;;;;;;5074742;28;20174;-73
2023/08/17 16:27:54;;;;;;;6.97;5.70;;;;;;;;;;5074879;28;20191;-73
2023/08/17 16:30:59;;;;;;;11.48;5.18;;;;;;;;;;5062534;28;20176;-73
2023/08/17 16:34:03;;;;;;;6.32;5.55;;;;;;;;;;5074453;28;20179;-73
2023/08/17 16:37:07;;;;;;;9.25;5.63;;;;;;;;;;5062413;28;20179;-73
2023/08/17 16:40:11;;;;;;;8.02;4.57;;;;;;;;;;5074665;28;20516;-73
2023/08/17 16:43:15;;;;;;;9.10;3.90;;;;;;;;;;5062153;28;20178;-72
2023/08/17 16:46:19;;;;;;;7.18;3.70;;;;;;;;;;5074124;28;20197;-72
2023/08/17 16:49:23;;;;;;;9.88;3.15;;;;;;;;;;5074536;28;20186;-73
2023/08/17 16:52:27;;;;;;;13.27;3.00;;;;;;;;;;5074213;28;20251;-73
2023/08/17 16:55:31;;;;;;;10.45;3.10;;;;;;;;;;5061801;28;20205;-72
2023/08/17 16:58:36;;;;;;;3.47;2.63;;;;;;;;;;5074167;28;20183;-73
2023/08/17 17:01:40;;;;;;;5.90;2.92;;;;;;;;;;5074605;28;20683;-73
2023/08/17 17:04:44;;;;;;;4.05;2.70;;;;;;;;;;5074257;28;20618;-73
2023/08/17 17:07:48;;;;;;;7.50;2.83;;;;;;;;;;5073882;28;20623;-73
2023/08/17 17:10:52;;;;;;;5.57;3.08;;;;;;;;;;5073860;28;20523;-73
2023/08/17 17:13:56;;;;;;;11.40;4.80;;;;;;;;;;5073775;28;20200;-72
2023/08/17 17:17:00;;;;;;;12.23;5.82;;;;;;;;;;5061553;28;20185;-71
2023/08/17 17:20:06;;;;;;;12.70;7.03;;;;;;;;;;5073939;28;20183;-71
2023/08/17 17:23:10;;;;;;;14.03;7.63;;;;;;;;;;5073508;28;20196;-69
2023/08/17 17:26:14;;;;;;;15.33;8.30;;;;;;;;;;5073793;28;20645;-71
2023/08/17 17:29:18;;;;;;;18.77;9.10;;;;;;;;;;5073326;28;20176;-70
2023/08/17 17:32:22;;;;;;;14.40;9.37;;;;;;;;;;5073521;28;20255;-70
2023/08/17 17:35:26;;;;;;;15.67;9.40;;;;;;;;;;5073573;28;20544;-70
2023/08/17 17:38:30;;;;;;;9.47;5.30;;;;;;;;;;5073788;28;20183;-69
2023/08/17 17:41:35;;;;;;;10.50;5.60;;;;;;;;;;5073273;28;20211;-70
2023/08/17 17:44:39;;;;;;;13.93;5.70;;;;;;;;;;5061457;28;20195;-70
2023/08/17 17:47:43;;;;;;;14.13;6.50;;;;;;;;;;5061266;28;20171;-70
2023/08/17 17:50:47;;;;;;;13.60;5.80;;;;;;;;;;5060992;28;20222;-71
2023/08/17 17:53:51;;;;;;;10.33;5.77;;;;;;;;;;5073178;28;20523;-71
2023/08/17 17:56:55;;;;;;;10.37;5.80;;;;;;;;;;5061061;28;20176;-70
2023/08/17 18:00:00;;;;;;;7.73;5.60;;;;;;;;;;5073099;28;20655;-70
2023/08/17 18:03:12;;;;;;;7.87;5.93;;;;;;;;;;5072748;28;20215;-71
2023/08/17 18:06:16;;;;;;;9.57;5.83;;;;;;;;;;5060467;28;20176;-70
2023/08/17 18:09:21;;;;;;;7.10;5.50;;;;;;;;;;5073265;28;20199;-72
2023/08/17 18:12:26;;;;;;;8.63;6.00;;;;;;;;;;5072851;28;20211;-72
2023/08/17 18:15:30;;;;;;;9.73;6.20;;;;;;;;;;5072818;28;20199;-72
2023/08/17 18:18:36;;;;;;;6.93;5.47;;;;;;;;;;5073188;28;20176;-72
2023/08/17 18:21:40;;;;;;;5.87;4.73;;;;;;;;;;5060076;28;20211;-72
2023/08/17 18:24:45;;;;;;;5.27;4.13;;;;;;;;;;5072835;28;20199;-72
2023/08/17 18:27:49;;;;;;;8.67;4.80;;;;;;;;;;5060533;28;20199;-72